Current Weather

Basrah Intl

Basrah Intl, Iraq (ORMM)

Report from: Friday, July 12, 2024 11:00 PM UTC
Current time: Friday, July 12, 2024 11:18 PM UTC

Nearby weather – Weather history – Daily summaries
Weather forecast

Temperature38.0°C (100.4°F)
Heat index35.9°C (96.7°F)
Dew point8.0°C (46.4°F)
Winds 20 kts (10.3 m/s, 23 mph) West-Northwest (300°)
Clouds Sky clear
Altimeter29.26 in.Hg (991 mB)
Relative humidity16 %
Density altitude3,496 ft. (1,066 m)
Remarks Ceiling and visibility OK
No significant changes expected in the next two hours
Flight conditions Visual Meteorological Conditions
Raw dataORMM 122300Z 30020KT CAVOK 38/08 Q0991 NOSIG
An unhandled exception has occurred. See browser dev tools for details. Reload 🗙